sensor_id;sensor_type;location;lat;lon;timestamp;pressure;altitude;pressure_sealevel;temperature;humidity
67377;BME280;54261;46.086;6.588;2023-04-10T00:00:11;92851.13;;;5.05;43.47
67377;BME280;54261;46.086;6.588;2023-04-10T00:05:13;92856.03;;;5.77;42.85
67377;BME280;54261;46.086;6.588;2023-04-10T00:10:15;92850.03;;;6.25;41.09
67377;BME280;54261;46.086;6.588;2023-04-10T00:15:17;92841.22;;;7.03;39.78
67377;BME280;54261;46.086;6.588;2023-04-10T00:20:22;92843.78;;;7.14;39.24
67377;BME280;54261;46.086;6.588;2023-04-10T00:25:24;92843.41;;;6.77;39.54
67377;BME280;54261;46.086;6.588;2023-04-10T00:30:27;92816.41;;;6.00;40.57
67377;BME280;54261;46.086;6.588;2023-04-10T00:35:29;92835.63;;;7.43;39.28
67377;BME280;54261;46.086;6.588;2023-04-10T00:40:31;92834.97;;;7.71;38.43
67377;BME280;54261;46.086;6.588;2023-04-10T00:45:33;92843.63;;;7.24;38.83
67377;BME280;54261;46.086;6.588;2023-04-10T00:50:35;92834.25;;;7.65;37.68
67377;BME280;54261;46.086;6.588;2023-04-10T00:55:37;92826.00;;;7.80;37.95
67377;BME280;54261;46.086;6.588;2023-04-10T01:00:40;92837.13;;;8.07;36.80
67377;BME280;54261;46.086;6.588;2023-04-10T01:06:07;92843.78;;;7.90;36.94
67377;BME280;54261;46.086;6.588;2023-04-10T01:11:19;92844.47;;;8.15;36.67
67377;BME280;54261;46.086;6.588;2023-04-10T01:16:30;92835.09;;;7.79;37.10
67377;BME280;54261;46.086;6.588;2023-04-10T01:21:35;92823.28;;;8.19;36.79
67377;BME280;54261;46.086;6.588;2023-04-10T01:31:57;92817.31;;;5.90;39.90
67377;BME280;54261;46.086;6.588;2023-04-10T01:37:15;92824.88;;;5.78;39.84
67377;BME280;54261;46.086;6.588;2023-04-10T01:42:19;92803.94;;;6.49;39.72
67377;BME280;54261;46.086;6.588;2023-04-10T01:47:23;92821.47;;;6.56;39.80
67377;BME280;54261;46.086;6.588;2023-04-10T01:52:26;92825.09;;;7.33;38.17
67377;BME280;54261;46.086;6.588;2023-04-10T01:57:39;92820.63;;;7.47;37.68
67377;BME280;54261;46.086;6.588;2023-04-10T02:02:42;92808.84;;;7.10;37.38
67377;BME280;54261;46.086;6.588;2023-04-10T02:08:11;92808.78;;;7.54;37.98
67377;BME280;54261;46.086;6.588;2023-04-10T02:13:19;92806.75;;;7.64;36.78
67377;BME280;54261;46.086;6.588;2023-04-10T02:18:24;92808.56;;;5.50;40.31
67377;BME280;54261;46.086;6.588;2023-04-10T02:23:27;92805.41;;;6.61;39.15
67377;BME280;54261;46.086;6.588;2023-04-10T02:28:29;92803.88;;;7.03;38.16
67377;BME280;54261;46.086;6.588;2023-04-10T02:33:31;92797.91;;;7.12;38.17
67377;BME280;54261;46.086;6.588;2023-04-10T02:38:33;92799.75;;;5.89;39.17
67377;BME280;54261;46.086;6.588;2023-04-10T02:43:35;92811.72;;;6.94;38.50
67377;BME280;54261;46.086;6.588;2023-04-10T02:48:37;92806.13;;;6.72;38.44
67377;BME280;54261;46.086;6.588;2023-04-10T02:53:39;92801.78;;;5.97;40.54
67377;BME280;54261;46.086;6.588;2023-04-10T02:58:41;92757.91;;;6.63;38.84
67377;BME280;54261;46.086;6.588;2023-04-10T03:03:47;92800.19;;;5.96;38.90
67377;BME280;54261;46.086;6.588;2023-04-10T03:08:58;92790.88;;;6.48;38.56
67377;BME280;54261;46.086;6.588;2023-04-10T03:14:01;92788.38;;;6.32;39.51
67377;BME280;54261;46.086;6.588;2023-04-10T03:19:03;92791.66;;;6.78;38.27
67377;BME280;54261;46.086;6.588;2023-04-10T03:24:05;92796.28;;;6.67;38.15
67377;BME280;54261;46.086;6.588;2023-04-10T03:29:07;92800.78;;;6.72;38.49
67377;BME280;54261;46.086;6.588;2023-04-10T03:34:09;92800.53;;;6.44;37.97
67377;BME280;54261;46.086;6.588;2023-04-10T03:39:11;92818.03;;;6.79;38.25
67377;BME280;54261;46.086;6.588;2023-04-10T03:44:13;92816.31;;;6.89;37.96
67377;BME280;54261;46.086;6.588;2023-04-10T03:49:15;92805.16;;;5.44;40.18
67377;BME280;54261;46.086;6.588;2023-04-10T03:54:17;92809.16;;;6.60;39.32
67377;BME280;54261;46.086;6.588;2023-04-10T03:59:19;92807.69;;;7.16;38.45
67377;BME280;54261;46.086;6.588;2023-04-10T04:04:26;92801.53;;;5.94;39.68
67377;BME280;54261;46.086;6.588;2023-04-10T04:09:54;92810.47;;;5.39;40.69
67377;BME280;54261;46.086;6.588;2023-04-10T04:15:20;92814.19;;;6.37;39.41
67377;BME280;54261;46.086;6.588;2023-04-10T04:20:32;92822.69;;;4.95;40.79
67377;BME280;54261;46.086;6.588;2023-04-10T04:25:53;92824.94;;;6.32;39.79
67377;BME280;54261;46.086;6.588;2023-04-10T04:31:28;92827.44;;;5.88;39.54
67377;BME280;54261;46.086;6.588;2023-04-10T04:37:00;92823.09;;;5.23;40.40
67377;BME280;54261;46.086;6.588;2023-04-10T04:42:12;92821.00;;;5.94;39.92
67377;BME280;54261;46.086;6.588;2023-04-10T04:47:33;92833.38;;;4.79;40.44
67377;BME280;54261;46.086;6.588;2023-04-10T04:52:56;92827.53;;;6.07;39.30
67377;BME280;54261;46.086;6.588;2023-04-10T04:58:09;92829.38;;;5.37;39.85
67377;BME280;54261;46.086;6.588;2023-04-10T05:03:43;92824.38;;;5.71;39.11
67377;BME280;54261;46.086;6.588;2023-04-10T05:09:15;92821.75;;;5.20;39.23
67377;BME280;54261;46.086;6.588;2023-04-10T05:14:27;92829.56;;;5.57;39.14
67377;BME280;54261;46.086;6.588;2023-04-10T05:20:05;92820.31;;;4.93;40.11
67377;BME280;54261;46.086;6.588;2023-04-10T05:25:42;92830.38;;;5.52;38.98
67377;BME280;54261;46.086;6.588;2023-04-10T05:30:54;92836.31;;;5.78;38.76
67377;BME280;54261;46.086;6.588;2023-04-10T05:36:14;92834.78;;;6.02;38.92
67377;BME280;54261;46.086;6.588;2023-04-10T05:41:30;92833.47;;;6.29;38.00
67377;BME280;54261;46.086;6.588;2023-04-10T05:46:53;92829.59;;;6.45;37.92
67377;BME280;54261;46.086;6.588;2023-04-10T05:52:13;92812.09;;;6.58;37.58
67377;BME280;54261;46.086;6.588;2023-04-10T05:57:33;92827.78;;;6.11;37.73
67377;BME280;54261;46.086;6.588;2023-04-10T06:02:54;92830.44;;;6.11;37.97
67377;BME280;54261;46.086;6.588;2023-04-10T06:08:00;92830.78;;;6.34;38.32
67377;BME280;54261;46.086;6.588;2023-04-10T06:13:02;92831.94;;;5.58;39.46
67377;BME280;54261;46.086;6.588;2023-04-10T06:18:05;92831.03;;;6.32;38.99
67377;BME280;54261;46.086;6.588;2023-04-10T06:23:07;92826.59;;;6.76;39.04
67377;BME280;54261;46.086;6.588;2023-04-10T06:28:10;92826.31;;;7.02;38.54
67377;BME280;54261;46.086;6.588;2023-04-10T06:33:12;92834.38;;;7.16;37.33
67377;BME280;54261;46.086;6.588;2023-04-10T06:38:17;92828.66;;;7.47;37.21
67377;BME280;54261;46.086;6.588;2023-04-10T06:43:19;92834.69;;;7.91;36.28
67377;BME280;54261;46.086;6.588;2023-04-10T06:48:22;92834.25;;;7.84;35.33
67377;BME280;54261;46.086;6.588;2023-04-10T06:53:24;92834.19;;;7.89;36.66
67377;BME280;54261;46.086;6.588;2023-04-10T06:58:26;92836.22;;;7.40;36.90
67377;BME280;54261;46.086;6.588;2023-04-10T07:03:29;92843.00;;;7.71;37.03
67377;BME280;54261;46.086;6.588;2023-04-10T07:08:31;92847.81;;;8.07;37.01
67377;BME280;54261;46.086;6.588;2023-04-10T07:13:33;92857.44;;;7.70;36.14
67377;BME280;54261;46.086;6.588;2023-04-10T07:18:36;92855.13;;;7.82;37.01
67377;BME280;54261;46.086;6.588;2023-04-10T07:23:39;92856.19;;;8.33;36.05
67377;BME280;54261;46.086;6.588;2023-04-10T07:28:41;92869.19;;;7.30;37.77
67377;BME280;54261;46.086;6.588;2023-04-10T07:33:46;92867.41;;;7.45;36.65
67377;BME280;54261;46.086;6.588;2023-04-10T07:38:48;92870.78;;;6.58;38.89
67377;BME280;54261;46.086;6.588;2023-04-10T07:43:50;92846.38;;;8.29;36.75
67377;BME280;54261;46.086;6.588;2023-04-10T07:48:52;92868.84;;;6.93;38.84
67377;BME280;54261;46.086;6.588;2023-04-10T07:53:56;92875.13;;;8.37;36.76
67377;BME280;54261;46.086;6.588;2023-04-10T07:58:59;92856.75;;;9.19;36.40
67377;BME280;54261;46.086;6.588;2023-04-10T08:04:01;92855.03;;;9.38;35.50
67377;BME280;54261;46.086;6.588;2023-04-10T08:09:06;92856.19;;;7.81;37.72
67377;BME280;54261;46.086;6.588;2023-04-10T08:14:09;92860.31;;;3.12;49.19
67377;BME280;54261;46.086;6.588;2023-04-10T08:19:11;92842.38;;;2.66;52.43
67377;BME280;54261;46.086;6.588;2023-04-10T08:24:13;92853.22;;;4.32;48.23
67377;BME280;54261;46.086;6.588;2023-04-10T08:29:15;92850.53;;;4.52;48.82
67377;BME280;54261;46.086;6.588;2023-04-10T08:34:17;92787.72;;;5.17;46.47
67377;BME280;54261;46.086;6.588;2023-04-10T08:39:18;92854.22;;;4.51;47.30
67377;BME280;54261;46.086;6.588;2023-04-10T08:44:20;92857.41;;;3.29;52.47
67377;BME280;54261;46.086;6.588;2023-04-10T08:54:53;92851.78;;;2.41;55.15
67377;BME280;54261;46.086;6.588;2023-04-10T08:59:57;92856.63;;;2.49;54.25
67377;BME280;54261;46.086;6.588;2023-04-10T09:05:01;92849.81;;;2.74;54.45
67377;BME280;54261;46.086;6.588;2023-04-10T09:10:06;92830.56;;;4.45;48.51
67377;BME280;54261;46.086;6.588;2023-04-10T09:15:08;92849.41;;;3.03;51.50
67377;BME280;54261;46.086;6.588;2023-04-10T09:20:20;92850.16;;;2.88;52.82
67377;BME280;54261;46.086;6.588;2023-04-10T09:25:34;92858.97;;;3.04;53.51
67377;BME280;54261;46.086;6.588;2023-04-10T09:30:39;92864.91;;;4.20;50.25
67377;BME280;54261;46.086;6.588;2023-04-10T09:35:41;92855.34;;;3.57;50.98
67377;BME280;54261;46.086;6.588;2023-04-10T09:40:44;92846.31;;;3.79;49.50
67377;BME280;54261;46.086;6.588;2023-04-10T09:45:54;92854.28;;;3.84;47.49
67377;BME280;54261;46.086;6.588;2023-04-10T09:50:57;92845.94;;;2.97;50.28
67377;BME280;54261;46.086;6.588;2023-04-10T09:55:59;92844.94;;;8.50;40.55
67377;BME280;54261;46.086;6.588;2023-04-10T10:01:01;92837.03;;;4.12;47.22
67377;BME280;54261;46.086;6.588;2023-04-10T10:06:03;92828.25;;;3.50;48.77
67377;BME280;54261;46.086;6.588;2023-04-10T10:11:06;92831.50;;;4.85;46.57
67377;BME280;54261;46.086;6.588;2023-04-10T10:16:15;92827.44;;;4.01;46.76
67377;BME280;54261;46.086;6.588;2023-04-10T10:21:19;92825.34;;;6.44;44.24
67377;BME280;54261;46.086;6.588;2023-04-10T10:26:22;92824.25;;;7.18;43.08
67377;BME280;54261;46.086;6.588;2023-04-10T10:31:26;92827.91;;;8.13;40.07
67377;BME280;54261;46.086;6.588;2023-04-10T10:36:39;92816.63;;;9.05;37.13
67377;BME280;54261;46.086;6.588;2023-04-10T10:42:22;92825.22;;;7.80;39.62
67377;BME280;54261;46.086;6.588;2023-04-10T10:47:28;92823.84;;;11.45;34.35
67377;BME280;54261;46.086;6.588;2023-04-10T10:52:50;92809.47;;;8.45;37.96
67377;BME280;54261;46.086;6.588;2023-04-10T10:58:00;92809.19;;;9.02;39.07
67377;BME280;54261;46.086;6.588;2023-04-10T11:08:13;92814.22;;;11.80;33.24
67377;BME280;54261;46.086;6.588;2023-04-10T11:13:16;92818.75;;;10.68;34.73
67377;BME280;54261;46.086;6.588;2023-04-10T11:18:18;92819.81;;;7.66;39.82
67377;BME280;54261;46.086;6.588;2023-04-10T11:23:21;92818.16;;;8.22;38.28
67377;BME280;54261;46.086;6.588;2023-04-10T11:28:34;92820.97;;;8.87;38.24
67377;BME280;54261;46.086;6.588;2023-04-10T11:33:36;92818.09;;;10.31;35.99
67377;BME280;54261;46.086;6.588;2023-04-10T11:38:38;92825.72;;;7.05;40.57
67377;BME280;54261;46.086;6.588;2023-04-10T11:43:40;92837.16;;;10.29;37.06
67377;BME280;54261;46.086;6.588;2023-04-10T11:48:43;92841.03;;;7.76;40.67
67377;BME280;54261;46.086;6.588;2023-04-10T11:53:45;92836.72;;;8.61;40.25
67377;BME280;54261;46.086;6.588;2023-04-10T11:58:49;92833.94;;;10.18;38.57
67377;BME280;54261;46.086;6.588;2023-04-10T12:03:53;92831.16;;;11.80;35.38
67377;BME280;54261;46.086;6.588;2023-04-10T12:08:56;92815.78;;;9.70;38.37
67377;BME280;54261;46.086;6.588;2023-04-10T12:13:58;92823.41;;;10.94;36.93
67377;BME280;54261;46.086;6.588;2023-04-10T12:19:01;92827.81;;;11.48;34.44
67377;BME280;54261;46.086;6.588;2023-04-10T12:24:03;92823.44;;;8.70;37.93
67377;BME280;54261;46.086;6.588;2023-04-10T12:29:05;92834.66;;;10.65;37.28
67377;BME280;54261;46.086;6.588;2023-04-10T12:34:08;92830.47;;;9.95;35.90
67377;BME280;54261;46.086;6.588;2023-04-10T12:39:23;92825.78;;;10.55;35.87
67377;BME280;54261;46.086;6.588;2023-04-10T12:44:25;92832.84;;;8.06;38.33
67377;BME280;54261;46.086;6.588;2023-04-10T12:49:27;92824.22;;;8.98;37.01
67377;BME280;54261;46.086;6.588;2023-04-10T12:54:31;92815.66;;;11.68;32.91
67377;BME280;54261;46.086;6.588;2023-04-10T12:59:33;92808.19;;;10.40;33.97
67377;BME280;54261;46.086;6.588;2023-04-10T13:04:35;92807.75;;;10.15;33.16
67377;BME280;54261;46.086;6.588;2023-04-10T13:09:37;92809.72;;;9.27;37.15
67377;BME280;54261;46.086;6.588;2023-04-10T13:14:39;92801.19;;;10.30;34.55
67377;BME280;54261;46.086;6.588;2023-04-10T13:19:41;92795.75;;;10.94;32.65
67377;BME280;54261;46.086;6.588;2023-04-10T13:24:43;92791.03;;;9.73;32.07
67377;BME280;54261;46.086;6.588;2023-04-10T13:29:46;92784.31;;;10.70;31.91
67377;BME280;54261;46.086;6.588;2023-04-10T13:34:47;92781.84;;;9.65;33.90
67377;BME280;54261;46.086;6.588;2023-04-10T13:39:49;92788.16;;;9.46;31.60
67377;BME280;54261;46.086;6.588;2023-04-10T13:44:51;92793.53;;;9.92;30.29
67377;BME280;54261;46.086;6.588;2023-04-10T13:49:53;92791.66;;;10.96;29.96
67377;BME280;54261;46.086;6.588;2023-04-10T13:54:55;92791.25;;;11.03;29.60
67377;BME280;54261;46.086;6.588;2023-04-10T13:59:57;92788.56;;;12.83;26.61
67377;BME280;54261;46.086;6.588;2023-04-10T14:04:58;92785.53;;;11.04;27.27
67377;BME280;54261;46.086;6.588;2023-04-10T14:10:01;92785.66;;;12.40;25.97
67377;BME280;54261;46.086;6.588;2023-04-10T14:15:04;92785.91;;;10.08;26.92
67377;BME280;54261;46.086;6.588;2023-04-10T14:20:06;92808.22;;;10.17;27.17
67377;BME280;54261;46.086;6.588;2023-04-10T14:25:11;92810.50;;;10.33;27.24
67377;BME280;54261;46.086;6.588;2023-04-10T14:30:16;92800.09;;;12.27;24.52
67377;BME280;54261;46.086;6.588;2023-04-10T14:35:18;92804.69;;;11.21;24.22
67377;BME280;54261;46.086;6.588;2023-04-10T14:40:20;92799.44;;;12.86;23.40
67377;BME280;54261;46.086;6.588;2023-04-10T14:45:22;92783.28;;;10.48;23.84
67377;BME280;54261;46.086;6.588;2023-04-10T14:50:24;92796.66;;;11.38;23.53
67377;BME280;54261;46.086;6.588;2023-04-10T14:55:29;92790.31;;;11.08;24.41
67377;BME280;54261;46.086;6.588;2023-04-10T15:00:31;92781.06;;;12.41;22.97
67377;BME280;54261;46.086;6.588;2023-04-10T15:05:33;92775.97;;;13.90;22.04
67377;BME280;54261;46.086;6.588;2023-04-10T15:10:35;92774.72;;;10.87;23.17
67377;BME280;54261;46.086;6.588;2023-04-10T15:15:37;92775.88;;;12.75;21.70
67377;BME280;54261;46.086;6.588;2023-04-10T15:20:39;92781.03;;;12.97;21.32
67377;BME280;54261;46.086;6.588;2023-04-10T15:25:41;92738.47;;;12.91;21.81
67377;BME280;54261;46.086;6.588;2023-04-10T15:30:43;92765.22;;;11.56;21.98
67377;BME280;54261;46.086;6.588;2023-04-10T15:35:47;92770.88;;;12.08;22.72
67377;BME280;54261;46.086;6.588;2023-04-10T15:40:50;92756.25;;;13.34;21.59
67377;BME280;54261;46.086;6.588;2023-04-10T15:45:52;92738.41;;;13.63;19.47
67377;BME280;54261;46.086;6.588;2023-04-10T15:50:54;92749.38;;;15.75;19.28
67377;BME280;54261;46.086;6.588;2023-04-10T15:55:56;92735.16;;;15.24;18.29
67377;BME280;54261;46.086;6.588;2023-04-10T16:00:59;92753.47;;;13.85;19.92
67377;BME280;54261;46.086;6.588;2023-04-10T16:06:01;92701.63;;;15.13;19.31
67377;BME280;54261;46.086;6.588;2023-04-10T16:11:03;92734.72;;;12.35;21.25
67377;BME280;54261;46.086;6.588;2023-04-10T16:16:05;92771.63;;;13.76;21.01
67377;BME280;54261;46.086;6.588;2023-04-10T16:21:12;92776.84;;;14.98;20.94
67377;BME280;54261;46.086;6.588;2023-04-10T16:26:17;92747.47;;;15.22;20.23
67377;BME280;54261;46.086;6.588;2023-04-10T16:31:20;92771.06;;;15.91;19.76
67377;BME280;54261;46.086;6.588;2023-04-10T16:36:22;92781.50;;;16.78;18.48
67377;BME280;54261;46.086;6.588;2023-04-10T16:41:24;92779.81;;;16.89;19.40
67377;BME280;54261;46.086;6.588;2023-04-10T16:46:26;92759.84;;;15.76;21.09
67377;BME280;54261;46.086;6.588;2023-04-10T16:51:27;92760.63;;;15.23;21.25
67377;BME280;54261;46.086;6.588;2023-04-10T16:56:30;92758.56;;;15.86;20.43
67377;BME280;54261;46.086;6.588;2023-04-10T17:01:33;92757.81;;;15.45;20.43
67377;BME280;54261;46.086;6.588;2023-04-10T17:06:40;92763.63;;;16.45;20.96
67377;BME280;54261;46.086;6.588;2023-04-10T17:11:42;92765.13;;;16.74;20.49
67377;BME280;54261;46.086;6.588;2023-04-10T17:16:44;92763.66;;;15.88;22.15
67377;BME280;54261;46.086;6.588;2023-04-10T17:21:46;92775.78;;;15.94;21.97
67377;BME280;54261;46.086;6.588;2023-04-10T17:26:48;92758.03;;;16.70;20.55
67377;BME280;54261;46.086;6.588;2023-04-10T17:31:50;92762.97;;;15.62;21.71
67377;BME280;54261;46.086;6.588;2023-04-10T17:36:52;92769.16;;;16.20;20.98
67377;BME280;54261;46.086;6.588;2023-04-10T17:41:54;92747.53;;;15.50;21.36
67377;BME280;54261;46.086;6.588;2023-04-10T17:46:57;92783.03;;;15.90;23.12
67377;BME280;54261;46.086;6.588;2023-04-10T17:51:59;92764.25;;;15.03;21.98
67377;BME280;54261;46.086;6.588;2023-04-10T17:57:01;92742.53;;;14.99;21.50
67377;BME280;54261;46.086;6.588;2023-04-10T18:02:03;92749.41;;;14.96;21.25
67377;BME280;54261;46.086;6.588;2023-04-10T18:07:05;92720.75;;;15.74;20.42
67377;BME280;54261;46.086;6.588;2023-04-10T18:12:07;92742.50;;;15.24;21.43
67377;BME280;54261;46.086;6.588;2023-04-10T18:17:09;92738.97;;;15.48;21.03
67377;BME280;54261;46.086;6.588;2023-04-10T18:22:11;92739.72;;;14.71;24.43
67377;BME280;54261;46.086;6.588;2023-04-10T18:27:13;92759.09;;;14.60;24.79
67377;BME280;54261;46.086;6.588;2023-04-10T18:32:15;92755.13;;;14.58;23.31
67377;BME280;54261;46.086;6.588;2023-04-10T18:37:17;92773.06;;;13.95;24.15
67377;BME280;54261;46.086;6.588;2023-04-10T18:42:19;92776.31;;;14.68;22.22
67377;BME280;54261;46.086;6.588;2023-04-10T18:47:20;92775.75;;;14.75;22.55
67377;BME280;54261;46.086;6.588;2023-04-10T18:52:22;92787.78;;;14.90;22.46
67377;BME280;54261;46.086;6.588;2023-04-10T18:57:24;92784.41;;;15.30;21.86
67377;BME280;54261;46.086;6.588;2023-04-10T19:02:26;92760.25;;;14.25;23.26
67377;BME280;54261;46.086;6.588;2023-04-10T19:07:31;92809.06;;;14.33;23.22
67377;BME280;54261;46.086;6.588;2023-04-10T19:12:33;92806.25;;;14.08;24.35
67377;BME280;54261;46.086;6.588;2023-04-10T19:17:35;92830.22;;;14.89;22.26
67377;BME280;54261;46.086;6.588;2023-04-10T19:22:37;92841.94;;;13.92;24.04
67377;BME280;54261;46.086;6.588;2023-04-10T19:27:39;92854.81;;;14.29;24.37
67377;BME280;54261;46.086;6.588;2023-04-10T19:32:41;92873.00;;;14.75;22.74
67377;BME280;54261;46.086;6.588;2023-04-10T19:37:43;92873.97;;;14.36;22.82
67377;BME280;54261;46.086;6.588;2023-04-10T19:42:44;92870.03;;;14.12;23.73
67377;BME280;54261;46.086;6.588;2023-04-10T19:47:49;92865.09;;;14.69;22.87
67377;BME280;54261;46.086;6.588;2023-04-10T19:52:51;92863.47;;;14.01;23.66
67377;BME280;54261;46.086;6.588;2023-04-10T19:57:53;92876.78;;;14.61;22.87
67377;BME280;54261;46.086;6.588;2023-04-10T20:02:55;92873.91;;;14.91;22.45
67377;BME280;54261;46.086;6.588;2023-04-10T20:07:57;92848.94;;;15.07;21.60
67377;BME280;54261;46.086;6.588;2023-04-10T20:12:59;92852.03;;;14.38;22.10
67377;BME280;54261;46.086;6.588;2023-04-10T20:18:01;92850.56;;;14.07;24.06
67377;BME280;54261;46.086;6.588;2023-04-10T20:23:03;92838.00;;;12.61;24.07
67377;BME280;54261;46.086;6.588;2023-04-10T20:28:05;92838.03;;;13.08;24.52
67377;BME280;54261;46.086;6.588;2023-04-10T20:33:07;92842.28;;;13.09;26.88
67377;BME280;54261;46.086;6.588;2023-04-10T20:38:08;92840.25;;;13.66;26.42
67377;BME280;54261;46.086;6.588;2023-04-10T20:43:10;92830.41;;;14.04;25.87
67377;BME280;54261;46.086;6.588;2023-04-10T20:48:12;92830.50;;;13.74;25.96
67377;BME280;54261;46.086;6.588;2023-04-10T20:53:14;92835.69;;;13.58;26.64
67377;BME280;54261;46.086;6.588;2023-04-10T20:58:16;92831.41;;;13.27;26.60
67377;BME280;54261;46.086;6.588;2023-04-10T21:03:18;92811.25;;;13.33;25.29
67377;BME280;54261;46.086;6.588;2023-04-10T21:08:21;92818.34;;;13.68;24.38
67377;BME280;54261;46.086;6.588;2023-04-10T21:13:23;92814.44;;;13.56;22.90
67377;BME280;54261;46.086;6.588;2023-04-10T21:18:25;92815.63;;;12.12;23.65
67377;BME280;54261;46.086;6.588;2023-04-10T21:23:27;92817.63;;;12.51;25.09
67377;BME280;54261;46.086;6.588;2023-04-10T21:28:29;92795.88;;;11.82;24.16
67377;BME280;54261;46.086;6.588;2023-04-10T21:33:31;92790.97;;;13.06;24.87
67377;BME280;54261;46.086;6.588;2023-04-10T21:38:33;92815.00;;;12.07;24.99
67377;BME280;54261;46.086;6.588;2023-04-10T21:43:35;92801.56;;;12.15;25.08
67377;BME280;54261;46.086;6.588;2023-04-10T21:48:39;92808.81;;;10.78;24.72
67377;BME280;54261;46.086;6.588;2023-04-10T21:53:42;92801.19;;;9.62;25.91
67377;BME280;54261;46.086;6.588;2023-04-10T21:58:43;92806.13;;;9.69;27.05
67377;BME280;54261;46.086;6.588;2023-04-10T22:03:45;92814.25;;;10.55;27.30
67377;BME280;54261;46.086;6.588;2023-04-10T22:08:48;92824.84;;;11.76;25.49
67377;BME280;54261;46.086;6.588;2023-04-10T22:13:49;92800.81;;;12.54;25.61
67377;BME280;54261;46.086;6.588;2023-04-10T22:18:53;92806.94;;;12.72;26.79
67377;BME280;54261;46.086;6.588;2023-04-10T22:23:55;92776.41;;;10.65;26.65
67377;BME280;54261;46.086;6.588;2023-04-10T22:28:57;92683.22;;;10.39;25.12
67377;BME280;54261;46.086;6.588;2023-04-10T22:33:59;92747.81;;;11.10;25.85
67377;BME280;54261;46.086;6.588;2023-04-10T22:39:02;92744.03;;;11.28;25.31
67377;BME280;54261;46.086;6.588;2023-04-10T22:44:04;92748.09;;;10.99;26.02
67377;BME280;54261;46.086;6.588;2023-04-10T22:49:07;92761.03;;;12.21;26.31
67377;BME280;54261;46.086;6.588;2023-04-10T22:54:10;92737.88;;;12.76;26.96
67377;BME280;54261;46.086;6.588;2023-04-10T22:59:12;92747.72;;;13.02;26.24
67377;BME280;54261;46.086;6.588;2023-04-10T23:04:14;92747.03;;;12.75;26.10
67377;BME280;54261;46.086;6.588;2023-04-10T23:09:16;92736.03;;;13.40;25.35
67377;BME280;54261;46.086;6.588;2023-04-10T23:14:18;92747.06;;;12.84;25.83
67377;BME280;54261;46.086;6.588;2023-04-10T23:19:20;92730.41;;;13.12;25.09
67377;BME280;54261;46.086;6.588;2023-04-10T23:24:22;92734.16;;;13.20;26.29
67377;BME280;54261;46.086;6.588;2023-04-10T23:29:24;92654.63;;;12.92;24.75
67377;BME280;54261;46.086;6.588;2023-04-10T23:34:25;92730.22;;;11.92;25.22
67377;BME280;54261;46.086;6.588;2023-04-10T23:39:27;92693.50;;;12.82;25.26
67377;BME280;54261;46.086;6.588;2023-04-10T23:44:29;92725.88;;;12.26;26.71
67377;BME280;54261;46.086;6.588;2023-04-10T23:49:31;92724.44;;;10.12;28.29
67377;BME280;54261;46.086;6.588;2023-04-10T23:54:35;92741.41;;;12.29;26.53
67377;BME280;54261;46.086;6.588;2023-04-10T23:59:37;92727.94;;;12.68;26.76
